sensor_id;sensor_type;location;lat;lon;timestamp;P1;durP1;ratioP1;P2;durP2;ratioP2
18072;SDS011;9161;47.348;9.648;2024-03-02T00:02:13;14.40;;;5.93;;
18072;SDS011;9161;47.348;9.648;2024-03-02T00:07:18;14.10;;;6.17;;
18072;SDS011;9161;47.348;9.648;2024-03-02T00:12:20;12.93;;;5.60;;
18072;SDS011;9161;47.348;9.648;2024-03-02T00:17:24;12.77;;;5.53;;
18072;SDS011;9161;47.348;9.648;2024-03-02T00:22:28;12.43;;;5.63;;
18072;SDS011;9161;47.348;9.648;2024-03-02T00:27:30;9.97;;;5.17;;
18072;SDS011;9161;47.348;9.648;2024-03-02T00:32:32;12.13;;;5.60;;
18072;SDS011;9161;47.348;9.648;2024-03-02T00:37:37;16.23;;;7.20;;
18072;SDS011;9161;47.348;9.648;2024-03-02T00:42:39;14.67;;;5.90;;
18072;SDS011;9161;47.348;9.648;2024-03-02T00:47:41;13.90;;;5.67;;
18072;SDS011;9161;47.348;9.648;2024-03-02T00:52:45;15.93;;;6.10;;
18072;SDS011;9161;47.348;9.648;2024-03-02T00:57:50;12.73;;;5.97;;
18072;SDS011;9161;47.348;9.648;2024-03-02T01:02:52;15.30;;;5.93;;
18072;SDS011;9161;47.348;9.648;2024-03-02T01:07:56;13.40;;;5.73;;
18072;SDS011;9161;47.348;9.648;2024-03-02T01:12:58;13.90;;;5.87;;
18072;SDS011;9161;47.348;9.648;2024-03-02T01:18:00;13.83;;;6.43;;
18072;SDS011;9161;47.348;9.648;2024-03-02T01:23:04;11.63;;;4.77;;
18072;SDS011;9161;47.348;9.648;2024-03-02T01:28:06;17.13;;;5.73;;
18072;SDS011;9161;47.348;9.648;2024-03-02T01:33:08;11.07;;;5.53;;
18072;SDS011;9161;47.348;9.648;2024-03-02T01:38:12;21.33;;;8.40;;
18072;SDS011;9161;47.348;9.648;2024-03-02T01:43:14;14.97;;;6.67;;
18072;SDS011;9161;47.348;9.648;2024-03-02T01:48:17;16.87;;;5.67;;
18072;SDS011;9161;47.348;9.648;2024-03-02T01:53:21;15.57;;;5.83;;
18072;SDS011;9161;47.348;9.648;2024-03-02T01:58:23;10.87;;;5.23;;
18072;SDS011;9161;47.348;9.648;2024-03-02T02:03:25;14.70;;;6.07;;
18072;SDS011;9161;47.348;9.648;2024-03-02T02:08:31;13.60;;;6.23;;
18072;SDS011;9161;47.348;9.648;2024-03-02T02:13:33;12.00;;;6.33;;
18072;SDS011;9161;47.348;9.648;2024-03-02T02:18:35;14.03;;;6.23;;
18072;SDS011;9161;47.348;9.648;2024-03-02T02:23:39;15.90;;;6.60;;
18072;SDS011;9161;47.348;9.648;2024-03-02T02:28:46;22.17;;;6.63;;
18072;SDS011;9161;47.348;9.648;2024-03-02T02:33:48;13.87;;;6.20;;
18072;SDS011;9161;47.348;9.648;2024-03-02T02:38:52;13.20;;;5.43;;
18072;SDS011;9161;47.348;9.648;2024-03-02T02:43:55;11.93;;;5.93;;
18072;SDS011;9161;47.348;9.648;2024-03-02T02:48:57;14.07;;;5.57;;
18072;SDS011;9161;47.348;9.648;2024-03-02T02:54:01;23.27;;;9.87;;
18072;SDS011;9161;47.348;9.648;2024-03-02T02:59:03;16.67;;;6.97;;
18072;SDS011;9161;47.348;9.648;2024-03-02T03:04:05;16.10;;;6.40;;
18072;SDS011;9161;47.348;9.648;2024-03-02T03:09:08;15.93;;;7.07;;
18072;SDS011;9161;47.348;9.648;2024-03-02T03:14:11;14.17;;;6.20;;
18072;SDS011;9161;47.348;9.648;2024-03-02T03:19:13;16.20;;;6.63;;
18072;SDS011;9161;47.348;9.648;2024-03-02T03:24:16;12.57;;;5.67;;
18072;SDS011;9161;47.348;9.648;2024-03-02T03:29:18;15.03;;;6.10;;
18072;SDS011;9161;47.348;9.648;2024-03-02T03:34:20;11.50;;;5.07;;
18072;SDS011;9161;47.348;9.648;2024-03-02T03:39:24;11.60;;;5.00;;
18072;SDS011;9161;47.348;9.648;2024-03-02T03:44:26;10.00;;;4.97;;
18072;SDS011;9161;47.348;9.648;2024-03-02T03:49:29;10.93;;;5.33;;
18072;SDS011;9161;47.348;9.648;2024-03-02T03:54:33;10.60;;;4.73;;
18072;SDS011;9161;47.348;9.648;2024-03-02T03:59:37;15.37;;;5.63;;
18072;SDS011;9161;47.348;9.648;2024-03-02T04:04:39;11.93;;;5.87;;
18072;SDS011;9161;47.348;9.648;2024-03-02T04:09:42;10.17;;;5.33;;
18072;SDS011;9161;47.348;9.648;2024-03-02T04:14:44;10.27;;;5.47;;
18072;SDS011;9161;47.348;9.648;2024-03-02T04:19:46;12.43;;;5.67;;
18072;SDS011;9161;47.348;9.648;2024-03-02T04:24:49;12.37;;;5.43;;
18072;SDS011;9161;47.348;9.648;2024-03-02T04:29:51;14.50;;;6.20;;
18072;SDS011;9161;47.348;9.648;2024-03-02T04:34:54;15.87;;;5.33;;
18072;SDS011;9161;47.348;9.648;2024-03-02T04:39:58;13.07;;;5.77;;
18072;SDS011;9161;47.348;9.648;2024-03-02T04:45:00;14.27;;;6.63;;
18072;SDS011;9161;47.348;9.648;2024-03-02T04:50:02;18.17;;;7.33;;
18072;SDS011;9161;47.348;9.648;2024-03-02T04:55:09;14.60;;;6.73;;
18072;SDS011;9161;47.348;9.648;2024-03-02T05:00:24;18.23;;;5.90;;
18072;SDS011;9161;47.348;9.648;2024-03-02T05:05:26;13.40;;;6.20;;
18072;SDS011;9161;47.348;9.648;2024-03-02T05:10:29;11.53;;;5.53;;
18072;SDS011;9161;47.348;9.648;2024-03-02T05:15:31;17.60;;;6.73;;
18072;SDS011;9161;47.348;9.648;2024-03-02T05:20:33;11.57;;;6.10;;
18072;SDS011;9161;47.348;9.648;2024-03-02T05:25:37;12.47;;;5.43;;
18072;SDS011;9161;47.348;9.648;2024-03-02T05:30:39;10.47;;;5.77;;
18072;SDS011;9161;47.348;9.648;2024-03-02T05:35:43;13.13;;;5.50;;
18072;SDS011;9161;47.348;9.648;2024-03-02T05:40:47;11.20;;;4.60;;
18072;SDS011;9161;47.348;9.648;2024-03-02T05:45:49;8.90;;;4.10;;
18072;SDS011;9161;47.348;9.648;2024-03-02T05:50:51;8.83;;;3.93;;
18072;SDS011;9161;47.348;9.648;2024-03-02T05:55:55;7.97;;;4.37;;
18072;SDS011;9161;47.348;9.648;2024-03-02T06:01:00;9.40;;;4.60;;
18072;SDS011;9161;47.348;9.648;2024-03-02T06:06:02;13.80;;;5.37;;
18072;SDS011;9161;47.348;9.648;2024-03-02T06:11:07;11.37;;;5.00;;
18072;SDS011;9161;47.348;9.648;2024-03-02T06:16:09;12.27;;;5.57;;
18072;SDS011;9161;47.348;9.648;2024-03-02T06:21:11;15.50;;;7.03;;
18072;SDS011;9161;47.348;9.648;2024-03-02T06:26:15;11.33;;;5.27;;
18072;SDS011;9161;47.348;9.648;2024-03-02T06:31:20;12.30;;;5.77;;
18072;SDS011;9161;47.348;9.648;2024-03-02T06:36:22;40.83;;;12.87;;
18072;SDS011;9161;47.348;9.648;2024-03-02T06:41:26;12.67;;;5.53;;
18072;SDS011;9161;47.348;9.648;2024-03-02T06:46:28;12.97;;;4.47;;
18072;SDS011;9161;47.348;9.648;2024-03-02T06:51:30;10.07;;;4.83;;
18072;SDS011;9161;47.348;9.648;2024-03-02T06:56:34;11.80;;;6.40;;
18072;SDS011;9161;47.348;9.648;2024-03-02T07:01:36;18.53;;;7.17;;
18072;SDS011;9161;47.348;9.648;2024-03-02T07:06:38;13.07;;;5.87;;
18072;SDS011;9161;47.348;9.648;2024-03-02T07:11:42;12.23;;;4.67;;
18072;SDS011;9161;47.348;9.648;2024-03-02T07:16:46;9.07;;;4.37;;
18072;SDS011;9161;47.348;9.648;2024-03-02T07:21:48;13.80;;;5.23;;
18072;SDS011;9161;47.348;9.648;2024-03-02T07:26:52;12.23;;;4.40;;
18072;SDS011;9161;47.348;9.648;2024-03-02T07:31:54;9.33;;;4.37;;
18072;SDS011;9161;47.348;9.648;2024-03-02T07:36:57;10.73;;;4.73;;
18072;SDS011;9161;47.348;9.648;2024-03-02T07:42:01;9.77;;;4.57;;
18072;SDS011;9161;47.348;9.648;2024-03-02T07:47:03;5.93;;;2.83;;
18072;SDS011;9161;47.348;9.648;2024-03-02T07:52:06;7.63;;;3.23;;
18072;SDS011;9161;47.348;9.648;2024-03-02T07:57:09;8.30;;;4.57;;
18072;SDS011;9161;47.348;9.648;2024-03-02T08:02:11;10.03;;;4.53;;
18072;SDS011;9161;47.348;9.648;2024-03-02T08:07:14;7.57;;;3.70;;
18072;SDS011;9161;47.348;9.648;2024-03-02T08:12:18;7.27;;;3.73;;
18072;SDS011;9161;47.348;9.648;2024-03-02T08:17:23;5.87;;;3.23;;
18072;SDS011;9161;47.348;9.648;2024-03-02T08:22:26;6.53;;;3.50;;
18072;SDS011;9161;47.348;9.648;2024-03-02T08:27:30;5.87;;;3.60;;
18072;SDS011;9161;47.348;9.648;2024-03-02T08:32:36;4.67;;;2.50;;
18072;SDS011;9161;47.348;9.648;2024-03-02T08:37:39;4.30;;;2.40;;
18072;SDS011;9161;47.348;9.648;2024-03-02T08:42:44;4.73;;;2.47;;
18072;SDS011;9161;47.348;9.648;2024-03-02T08:47:47;4.00;;;1.37;;
18072;SDS011;9161;47.348;9.648;2024-03-02T08:52:50;5.33;;;2.30;;
18072;SDS011;9161;47.348;9.648;2024-03-02T08:57:53;5.33;;;2.73;;
18072;SDS011;9161;47.348;9.648;2024-03-02T09:02:56;3.30;;;2.33;;
18072;SDS011;9161;47.348;9.648;2024-03-02T09:07:59;4.30;;;2.10;;
18072;SDS011;9161;47.348;9.648;2024-03-02T09:13:02;3.33;;;1.77;;
18072;SDS011;9161;47.348;9.648;2024-03-02T09:18:05;4.13;;;1.57;;
18072;SDS011;9161;47.348;9.648;2024-03-02T09:23:08;2.60;;;1.43;;
18072;SDS011;9161;47.348;9.648;2024-03-02T09:28:11;2.03;;;1.03;;
18072;SDS011;9161;47.348;9.648;2024-03-02T09:33:13;2.00;;;0.80;;
18072;SDS011;9161;47.348;9.648;2024-03-02T09:38:17;3.10;;;1.80;;
18072;SDS011;9161;47.348;9.648;2024-03-02T09:43:20;3.07;;;1.40;;
18072;SDS011;9161;47.348;9.648;2024-03-02T09:48:23;2.80;;;1.47;;
18072;SDS011;9161;47.348;9.648;2024-03-02T09:53:25;2.30;;;1.43;;
18072;SDS011;9161;47.348;9.648;2024-03-02T09:58:33;3.10;;;1.73;;
18072;SDS011;9161;47.348;9.648;2024-03-02T10:03:36;1.77;;;1.00;;
18072;SDS011;9161;47.348;9.648;2024-03-02T10:08:42;3.40;;;1.37;;
18072;SDS011;9161;47.348;9.648;2024-03-02T10:13:46;1.47;;;1.00;;
18072;SDS011;9161;47.348;9.648;2024-03-02T10:18:49;2.50;;;1.00;;
18072;SDS011;9161;47.348;9.648;2024-03-02T10:23:51;1.10;;;0.80;;
18072;SDS011;9161;47.348;9.648;2024-03-02T10:28:55;0.50;;;0.50;;
18072;SDS011;9161;47.348;9.648;2024-03-02T10:34:00;1.27;;;0.70;;
18072;SDS011;9161;47.348;9.648;2024-03-02T10:39:04;0.97;;;0.60;;
18072;SDS011;9161;47.348;9.648;2024-03-02T10:44:08;0.80;;;0.70;;
18072;SDS011;9161;47.348;9.648;2024-03-02T10:49:12;1.03;;;0.60;;
18072;SDS011;9161;47.348;9.648;2024-03-02T10:54:14;2.83;;;0.70;;
18072;SDS011;9161;47.348;9.648;2024-03-02T10:59:24;0.87;;;0.70;;
18072;SDS011;9161;47.348;9.648;2024-03-02T11:04:29;1.20;;;0.80;;
18072;SDS011;9161;47.348;9.648;2024-03-02T11:09:34;0.83;;;0.50;;
18072;SDS011;9161;47.348;9.648;2024-03-02T11:14:40;0.90;;;0.70;;
18072;SDS011;9161;47.348;9.648;2024-03-02T11:19:44;1.83;;;0.67;;
18072;SDS011;9161;47.348;9.648;2024-03-02T11:24:47;0.80;;;0.60;;
18072;SDS011;9161;47.348;9.648;2024-03-02T11:29:52;1.33;;;0.80;;
18072;SDS011;9161;47.348;9.648;2024-03-02T11:34:54;1.23;;;0.70;;
18072;SDS011;9161;47.348;9.648;2024-03-02T11:39:57;0.50;;;0.43;;
18072;SDS011;9161;47.348;9.648;2024-03-02T11:45:01;1.23;;;0.70;;
18072;SDS011;9161;47.348;9.648;2024-03-02T11:50:03;1.60;;;0.67;;
18072;SDS011;9161;47.348;9.648;2024-03-02T11:55:07;2.83;;;1.17;;
18072;SDS011;9161;47.348;9.648;2024-03-02T12:00:17;1.13;;;0.70;;
18072;SDS011;9161;47.348;9.648;2024-03-02T12:05:20;0.80;;;0.67;;
18072;SDS011;9161;47.348;9.648;2024-03-02T12:10:23;1.70;;;0.80;;
18072;SDS011;9161;47.348;9.648;2024-03-02T12:15:27;1.20;;;0.70;;
18072;SDS011;9161;47.348;9.648;2024-03-02T12:20:31;2.08;;;1.23;;
18072;SDS011;9161;47.348;9.648;2024-03-02T12:25:34;0.88;;;0.70;;
18072;SDS011;9161;47.348;9.648;2024-03-02T12:30:38;2.75;;;0.90;;
18072;SDS011;9161;47.348;9.648;2024-03-02T12:35:40;1.95;;;1.00;;
18072;SDS011;9161;47.348;9.648;2024-03-02T12:40:42;1.02;;;0.93;;
18072;SDS011;9161;47.348;9.648;2024-03-02T12:45:46;2.78;;;0.90;;
18072;SDS011;9161;47.348;9.648;2024-03-02T12:50:49;1.20;;;0.68;;
18072;SDS011;9161;47.348;9.648;2024-03-02T12:55:50;1.15;;;0.80;;
18072;SDS011;9161;47.348;9.648;2024-03-02T13:01:06;0.70;;;0.50;;
18072;SDS011;9161;47.348;9.648;2024-03-02T13:06:09;1.45;;;0.40;;
18072;SDS011;9161;47.348;9.648;2024-03-02T13:11:12;0.30;;;0.30;;
18072;SDS011;9161;47.348;9.648;2024-03-02T13:16:16;0.50;;;0.32;;
18072;SDS011;9161;47.348;9.648;2024-03-02T13:21:28;0.45;;;0.40;;
18072;SDS011;9161;47.348;9.648;2024-03-02T13:26:30;1.23;;;0.40;;
18072;SDS011;9161;47.348;9.648;2024-03-02T13:31:33;0.40;;;0.30;;
18072;SDS011;9161;47.348;9.648;2024-03-02T13:36:35;0.70;;;0.60;;
18072;SDS011;9161;47.348;9.648;2024-03-02T13:41:39;0.40;;;0.40;;
18072;SDS011;9161;47.348;9.648;2024-03-02T13:46:43;2.72;;;0.70;;
18072;SDS011;9161;47.348;9.648;2024-03-02T13:51:46;0.98;;;0.70;;
18072;SDS011;9161;47.348;9.648;2024-03-02T13:56:48;0.77;;;0.60;;
18072;SDS011;9161;47.348;9.648;2024-03-02T14:01:52;1.90;;;0.90;;
18072;SDS011;9161;47.348;9.648;2024-03-02T14:06:54;0.73;;;0.60;;
18072;SDS011;9161;47.348;9.648;2024-03-02T14:11:56;1.48;;;0.80;;
18072;SDS011;9161;47.348;9.648;2024-03-02T14:17:02;1.02;;;0.60;;
18072;SDS011;9161;47.348;9.648;2024-03-02T14:22:06;0.90;;;0.80;;
18072;SDS011;9161;47.348;9.648;2024-03-02T14:27:09;1.55;;;0.70;;
18072;SDS011;9161;47.348;9.648;2024-03-02T14:32:29;0.95;;;0.60;;
18072;SDS011;9161;47.348;9.648;2024-03-02T14:37:31;0.52;;;0.50;;
18072;SDS011;9161;47.348;9.648;2024-03-02T14:42:33;0.82;;;0.70;;
18072;SDS011;9161;47.348;9.648;2024-03-02T14:47:37;0.75;;;0.47;;
18072;SDS011;9161;47.348;9.648;2024-03-02T14:52:40;1.05;;;0.75;;
18072;SDS011;9161;47.348;9.648;2024-03-02T14:57:44;2.75;;;1.63;;
18072;SDS011;9161;47.348;9.648;2024-03-02T15:02:49;0.77;;;0.60;;
18072;SDS011;9161;47.348;9.648;2024-03-02T15:07:51;0.88;;;0.50;;
18072;SDS011;9161;47.348;9.648;2024-03-02T15:12:54;1.00;;;0.60;;
18072;SDS011;9161;47.348;9.648;2024-03-02T15:17:58;1.15;;;0.75;;
18072;SDS011;9161;47.348;9.648;2024-03-02T15:23:02;2.20;;;0.60;;
18072;SDS011;9161;47.348;9.648;2024-03-02T15:28:05;1.73;;;0.63;;
18072;SDS011;9161;47.348;9.648;2024-03-02T15:33:10;1.30;;;0.70;;
18072;SDS011;9161;47.348;9.648;2024-03-02T15:38:12;2.50;;;0.60;;
18072;SDS011;9161;47.348;9.648;2024-03-02T15:43:27;1.43;;;0.83;;
18072;SDS011;9161;47.348;9.648;2024-03-02T15:48:32;2.77;;;1.00;;
18072;SDS011;9161;47.348;9.648;2024-03-02T15:53:35;3.07;;;1.40;;
18072;SDS011;9161;47.348;9.648;2024-03-02T15:58:38;2.07;;;1.23;;
18072;SDS011;9161;47.348;9.648;2024-03-02T16:03:42;3.07;;;1.60;;
18072;SDS011;9161;47.348;9.648;2024-03-02T16:08:44;4.13;;;1.70;;
18072;SDS011;9161;47.348;9.648;2024-03-02T16:13:46;2.63;;;1.90;;
18072;SDS011;9161;47.348;9.648;2024-03-02T16:18:50;3.87;;;1.67;;
18072;SDS011;9161;47.348;9.648;2024-03-02T16:23:53;3.33;;;1.70;;
18072;SDS011;9161;47.348;9.648;2024-03-02T16:28:55;3.80;;;1.77;;
18072;SDS011;9161;47.348;9.648;2024-03-02T16:33:59;3.80;;;1.87;;
18072;SDS011;9161;47.348;9.648;2024-03-02T16:39:02;7.30;;;2.03;;
18072;SDS011;9161;47.348;9.648;2024-03-02T16:44:05;6.77;;;2.47;;
18072;SDS011;9161;47.348;9.648;2024-03-02T16:49:09;7.03;;;4.03;;
18072;SDS011;9161;47.348;9.648;2024-03-02T16:54:11;7.70;;;2.93;;
18072;SDS011;9161;47.348;9.648;2024-03-02T16:59:14;7.30;;;3.33;;
18072;SDS011;9161;47.348;9.648;2024-03-02T17:04:18;9.57;;;2.87;;
18072;SDS011;9161;47.348;9.648;2024-03-02T17:09:24;16.13;;;5.57;;
18072;SDS011;9161;47.348;9.648;2024-03-02T17:14:26;9.57;;;3.97;;
18072;SDS011;9161;47.348;9.648;2024-03-02T17:19:30;7.23;;;3.13;;
18072;SDS011;9161;47.348;9.648;2024-03-02T17:24:33;7.60;;;3.40;;
18072;SDS011;9161;47.348;9.648;2024-03-02T17:29:36;8.50;;;3.17;;
18072;SDS011;9161;47.348;9.648;2024-03-02T17:34:40;9.70;;;3.60;;
18072;SDS011;9161;47.348;9.648;2024-03-02T17:39:42;10.83;;;3.47;;
18072;SDS011;9161;47.348;9.648;2024-03-02T17:44:46;11.27;;;4.90;;
18072;SDS011;9161;47.348;9.648;2024-03-02T17:49:51;8.50;;;4.00;;
18072;SDS011;9161;47.348;9.648;2024-03-02T17:54:53;7.93;;;3.73;;
18072;SDS011;9161;47.348;9.648;2024-03-02T17:59:56;9.17;;;3.73;;
18072;SDS011;9161;47.348;9.648;2024-03-02T18:05:00;12.57;;;3.97;;
18072;SDS011;9161;47.348;9.648;2024-03-02T18:10:05;10.73;;;3.83;;
18072;SDS011;9161;47.348;9.648;2024-03-02T18:15:08;9.70;;;3.97;;
18072;SDS011;9161;47.348;9.648;2024-03-02T18:20:13;10.13;;;4.57;;
18072;SDS011;9161;47.348;9.648;2024-03-02T18:25:16;11.13;;;4.87;;
18072;SDS011;9161;47.348;9.648;2024-03-02T18:30:23;13.60;;;5.10;;
18072;SDS011;9161;47.348;9.648;2024-03-02T18:35:26;10.90;;;4.97;;
18072;SDS011;9161;47.348;9.648;2024-03-02T18:40:29;11.77;;;4.40;;
18072;SDS011;9161;47.348;9.648;2024-03-02T18:45:31;7.83;;;4.10;;
18072;SDS011;9161;47.348;9.648;2024-03-02T18:50:35;8.47;;;3.63;;
18072;SDS011;9161;47.348;9.648;2024-03-02T18:55:38;8.63;;;3.43;;
18072;SDS011;9161;47.348;9.648;2024-03-02T19:00:40;6.30;;;2.93;;
18072;SDS011;9161;47.348;9.648;2024-03-02T19:05:43;3.50;;;2.60;;
18072;SDS011;9161;47.348;9.648;2024-03-02T19:10:47;4.20;;;2.00;;
18072;SDS011;9161;47.348;9.648;2024-03-02T19:15:49;6.80;;;1.80;;
18072;SDS011;9161;47.348;9.648;2024-03-02T19:20:53;4.90;;;2.23;;
18072;SDS011;9161;47.348;9.648;2024-03-02T19:25:55;4.10;;;2.10;;
18072;SDS011;9161;47.348;9.648;2024-03-02T19:30:58;5.90;;;2.10;;
18072;SDS011;9161;47.348;9.648;2024-03-02T19:36:01;3.00;;;1.47;;
18072;SDS011;9161;47.348;9.648;2024-03-02T19:41:04;7.63;;;1.60;;
18072;SDS011;9161;47.348;9.648;2024-03-02T19:46:06;5.37;;;2.27;;
18072;SDS011;9161;47.348;9.648;2024-03-02T19:51:10;6.57;;;2.97;;
18072;SDS011;9161;47.348;9.648;2024-03-02T19:56:16;9.13;;;4.07;;
18072;SDS011;9161;47.348;9.648;2024-03-02T20:01:19;2.00;;;1.03;;
18072;SDS011;9161;47.348;9.648;2024-03-02T20:06:23;1.53;;;0.47;;
18072;SDS011;9161;47.348;9.648;2024-03-02T20:11:25;1.87;;;0.57;;
18072;SDS011;9161;47.348;9.648;2024-03-02T20:16:31;1.20;;;0.40;;
18072;SDS011;9161;47.348;9.648;2024-03-02T20:21:35;1.37;;;0.47;;
18072;SDS011;9161;47.348;9.648;2024-03-02T20:26:37;0.43;;;0.30;;
18072;SDS011;9161;47.348;9.648;2024-03-02T20:31:40;0.80;;;0.40;;
18072;SDS011;9161;47.348;9.648;2024-03-02T20:36:44;0.93;;;0.40;;
18072;SDS011;9161;47.348;9.648;2024-03-02T20:41:46;0.70;;;0.33;;
18072;SDS011;9161;47.348;9.648;2024-03-02T20:46:50;1.20;;;0.20;;
18072;SDS011;9161;47.348;9.648;2024-03-02T20:51:54;0.90;;;0.30;;
18072;SDS011;9161;47.348;9.648;2024-03-02T20:56:58;0.73;;;0.40;;
18072;SDS011;9161;47.348;9.648;2024-03-02T21:02:06;2.20;;;0.93;;
18072;SDS011;9161;47.348;9.648;2024-03-02T21:07:10;0.87;;;0.27;;
18072;SDS011;9161;47.348;9.648;2024-03-02T21:12:12;0.87;;;0.30;;
18072;SDS011;9161;47.348;9.648;2024-03-02T21:17:14;0.40;;;0.27;;
18072;SDS011;9161;47.348;9.648;2024-03-02T21:22:18;0.73;;;0.30;;
18072;SDS011;9161;47.348;9.648;2024-03-02T21:27:22;0.93;;;0.40;;
18072;SDS011;9161;47.348;9.648;2024-03-02T21:32:24;1.60;;;0.20;;
18072;SDS011;9161;47.348;9.648;2024-03-02T21:37:28;0.10;;;0.10;;
18072;SDS011;9161;47.348;9.648;2024-03-02T21:42:30;0.63;;;0.20;;
18072;SDS011;9161;47.348;9.648;2024-03-02T21:47:32;1.30;;;0.43;;
18072;SDS011;9161;47.348;9.648;2024-03-02T21:52:36;1.03;;;0.30;;
18072;SDS011;9161;47.348;9.648;2024-03-02T21:57:39;0.73;;;0.20;;
18072;SDS011;9161;47.348;9.648;2024-03-02T22:02:41;0.93;;;0.30;;
18072;SDS011;9161;47.348;9.648;2024-03-02T22:07:45;0.63;;;0.30;;
18072;SDS011;9161;47.348;9.648;2024-03-02T22:12:47;0.30;;;0.20;;
18072;SDS011;9161;47.348;9.648;2024-03-02T22:17:49;0.63;;;0.20;;
18072;SDS011;9161;47.348;9.648;2024-03-02T22:22:53;0.30;;;0.20;;
18072;SDS011;9161;47.348;9.648;2024-03-02T22:27:55;0.10;;;0.10;;
18072;SDS011;9161;47.348;9.648;2024-03-02T22:32:58;0.83;;;0.20;;
18072;SDS011;9161;47.348;9.648;2024-03-02T22:38:02;0.10;;;0.03;;
18072;SDS011;9161;47.348;9.648;2024-03-02T22:43:04;0.27;;;0.10;;
18072;SDS011;9161;47.348;9.648;2024-03-02T22:48:07;0.23;;;0.10;;
18072;SDS011;9161;47.348;9.648;2024-03-02T22:53:10;0.10;;;0.10;;
18072;SDS011;9161;47.348;9.648;2024-03-02T22:58:12;0.10;;;0.10;;
18072;SDS011;9161;47.348;9.648;2024-03-02T23:03:15;0.30;;;0.17;;
18072;SDS011;9161;47.348;9.648;2024-03-02T23:08:19;0.40;;;0.20;;
18072;SDS011;9161;47.348;9.648;2024-03-02T23:13:21;0.20;;;0.20;;
18072;SDS011;9161;47.348;9.648;2024-03-02T23:18:24;0.30;;;0.20;;
18072;SDS011;9161;47.348;9.648;2024-03-02T23:23:28;0.00;;;0.00;;
18072;SDS011;9161;47.348;9.648;2024-03-02T23:28:30;0.43;;;0.20;;
18072;SDS011;9161;47.348;9.648;2024-03-02T23:33:32;0.07;;;0.07;;
18072;SDS011;9161;47.348;9.648;2024-03-02T23:38:36;0.43;;;0.10;;
18072;SDS011;9161;47.348;9.648;2024-03-02T23:43:38;1.40;;;0.17;;
18072;SDS011;9161;47.348;9.648;2024-03-02T23:48:40;0.13;;;0.13;;
18072;SDS011;9161;47.348;9.648;2024-03-02T23:53:44;0.33;;;0.13;;
18072;SDS011;9161;47.348;9.648;2024-03-02T23:58:46;0.10;;;0.10;;
